Arklow Mill — EIJD9 — position and weather

sailwx.info

Track history (hours):
 
Tides and Currents Weather Stations Pressure Air Temp Water Temp Dewpoint Dewpoint Depression Visibility Wind Speed Wind Dir Waves Ship Positions

Arklow Mill

Last reported at 2017-Nov-17 14:32 UTC. Time now 2017-Nov-18 14:19 UTC.
Position N 58°33' E 009°39'.

Length 137 m; draft 8.4 m.

Type: Ship. MMSI: 250002022.

Date/timePositionNaut miles runAvg speedWind from/ knotsBaromVisibWave heightAir tempDewpointWater temp
2017-Nov-17 14:32N 58°33' E 009°39'0 6.4
2017-Nov-17 14:30N 58°34' E 009°39'510.2
2017-Nov-17 14:00N 58°39' E 009°41'5 9.6
2017-Nov-17 13:30N 58°43' E 009°43'5 9.7
2017-Nov-17 13:00N 58°48' E 009°44'5 9.3
2017-Nov-17 12:30N 58°53' E 009°46'5 9.4
2017-Nov-17 12:00N 58°57' E 009°47'5 9.5
2017-Nov-17 11:30N 59°02' E 009°44'4 8.8
2017-Nov-17 11:00N 59°05' E 009°38'2 4.5
2017-Nov-17 10:30N 59°07' E 009°37'0 0.0
2017-Nov-17 09:58N 59°07' E 009°37'0 0.0
2017-Nov-17 09:30N 59°07' E 009°37'0 0.0
2017-Nov-17 09:00N 59°07' E 009°37'0 0.0
2017-Nov-17 08:30N 59°07' E 009°37'0 0.0
2017-Nov-17 08:00N 59°07' E 009°37'0 0.0
2017-Nov-17 07:30N 59°07' E 009°37'0 0.0
2017-Nov-17 07:00N 59°07' E 009°37'0 0.0
2017-Nov-17 06:30N 59°07' E 009°37'0 0.0
2017-Nov-17 06:00N 59°07' E 009°37'0 0.0
2017-Nov-17 05:30N 59°07' E 009°37'0 0.0
2017-Nov-17 05:00N 59°07' E 009°37'0 0.0
2017-Nov-17 04:30N 59°07' E 009°37'0 0.0
2017-Nov-17 04:00N 59°07' E 009°37'0 0.0
2017-Nov-17 03:30N 59°07' E 009°37'0 0.0
2017-Nov-17 03:00N 59°07' E 009°37'0 0.0
2017-Nov-17 02:30N 59°07' E 009°37'0 0.0
2017-Nov-17 02:00N 59°07' E 009°37'0 0.0
2017-Nov-17 01:30N 59°07' E 009°37'0 0.0
2017-Nov-17 01:00N 59°07' E 009°37'0 0.0
2017-Nov-17 00:30N 59°07' E 009°37'0 0.0
2017-Nov-17 00:00N 59°07' E 009°37'0 0.0
2017-Nov-16 23:30N 59°07' E 009°37'0 0.0
2017-Nov-16 23:00N 59°07' E 009°37'0 0.0
2017-Nov-16 22:30N 59°07' E 009°37'0 0.0
2017-Nov-16 21:59N 59°07' E 009°37'0 0.0
2017-Nov-16 21:30N 59°07' E 009°37'0 0.0
2017-Nov-16 21:00N 59°07' E 009°37'0 0.0
2017-Nov-16 20:30N 59°07' E 009°37'0 0.0
2017-Nov-16 20:00N 59°07' E 009°37'0 0.0
2017-Nov-16 19:30N 59°07' E 009°37'0 0.0
2017-Nov-16 19:00N 59°07' E 009°37'0 0.0
2017-Nov-16 18:31N 59°07' E 009°37'0 0.0
2017-Nov-16 18:00N 59°07' E 009°37'0 0.0
2017-Nov-16 17:30N 59°07' E 009°37'0 0.0
2017-Nov-16 17:00N 59°07' E 009°37'0 0.0
2017-Nov-16 16:31N 59°07' E 009°37'0 0.0
2017-Nov-16 16:00N 59°07' E 009°37'0 0.0
2017-Nov-16 15:30N 59°07' E 009°37'0 0.0
2017-Nov-16 15:00N 59°07' E 009°37'0 0.0
2017-Nov-16 14:30N 59°07' E 009°37'0 0.0
2017-Nov-16 14:00N 59°07' E 009°37'0 0.0
2017-Nov-16 13:30N 59°07' E 009°37'0 0.0
2017-Nov-16 13:00N 59°07' E 009°37'0 0.0
2017-Nov-16 12:30N 59°07' E 009°37'0 0.0
2017-Nov-16 12:00N 59°07' E 009°37'0 0.0
2017-Nov-16 11:30N 59°07' E 009°37'0 0.0
2017-Nov-16 11:00N 59°07' E 009°37'0 0.0
2017-Nov-16 10:30N 59°07' E 009°37'0 0.0
2017-Nov-16 10:00N 59°07' E 009°37'0 0.0
2017-Nov-16 09:31N 59°07' E 009°37'0 0.0
2017-Nov-16 09:00N 59°07' E 009°37'0 0.0
2017-Nov-16 08:30N 59°07' E 009°37'0 0.0
2017-Nov-16 08:00N 59°07' E 009°37'0 0.0
2017-Nov-16 07:30N 59°07' E 009°37'0 0.0
2017-Nov-16 07:00N 59°07' E 009°37'0 0.0
2017-Nov-16 06:30N 59°07' E 009°37'0 0.0
2017-Nov-16 06:00N 59°07' E 009°37'0 0.0
2017-Nov-16 05:29N 59°07' E 009°37'0 0.0
2017-Nov-16 05:01N 59°07' E 009°37'0 0.0
2017-Nov-16 04:31N 59°07' E 009°37'0 0.0
2017-Nov-16 04:00N 59°07' E 009°37'0 0.0
2017-Nov-16 03:30N 59°07' E 009°37'0 0.0
2017-Nov-16 03:00N 59°07' E 009°37'0 0.0
2017-Nov-16 02:30N 59°07' E 009°37'0 0.0
2017-Nov-16 02:00N 59°07' E 009°37'0 0.0
2017-Nov-16 01:30N 59°07' E 009°37'0 0.0
2017-Nov-16 01:00N 59°07' E 009°37'0 0.0
2017-Nov-16 00:30N 59°07' E 009°37'0 0.0
2017-Nov-16 00:00N 59°07' E 009°37'0 0.0
2017-Nov-15 23:30N 59°07' E 009°37'0 0.0
2017-Nov-15 23:00N 59°07' E 009°37'0 0.0
2017-Nov-15 22:30N 59°07' E 009°37'0 0.0
2017-Nov-15 22:00N 59°07' E 009°37'0 0.0
2017-Nov-15 21:30N 59°07' E 009°37'0 0.0
2017-Nov-15 21:00N 59°07' E 009°37'0 0.0
2017-Nov-15 20:30N 59°07' E 009°37'0 0.0
2017-Nov-15 20:00N 59°07' E 009°37'0 0.0
2017-Nov-15 19:30N 59°07' E 009°37'0 0.0
2017-Nov-15 19:00N 59°07' E 009°37'0 0.0
2017-Nov-15 18:30N 59°07' E 009°37'0 0.0
2017-Nov-15 18:00N 59°07' E 009°37'0 0.0
2017-Nov-15 17:30N 59°07' E 009°37'0 0.0
2017-Nov-15 17:00N 59°07' E 009°37'0 0.0
2017-Nov-15 16:30N 59°07' E 009°37'0 0.0
2017-Nov-15 16:00N 59°07' E 009°37'0 0.0
2017-Nov-15 15:30N 59°07' E 009°37'0 0.0
2017-Nov-15 15:00N 59°07' E 009°37'0 0.0
2017-Nov-15 14:30N 59°07' E 009°37'0 0.0
2017-Nov-15 14:00N 59°07' E 009°37'0 0.0
2017-Nov-15 13:30N 59°07' E 009°37'0 0.0
2017-Nov-15 13:00N 59°07' E 009°37'0 0.0
2017-Nov-15 12:30N 59°07' E 009°37'0 0.0
2017-Nov-15 12:00N 59°07' E 009°37'0 0.0
2017-Nov-15 11:30N 59°07' E 009°37'0 0.0
2017-Nov-15 11:00N 59°07' E 009°37'0 0.0
2017-Nov-15 10:30N 59°07' E 009°37'0 0.0
2017-Nov-15 09:59N 59°07' E 009°37'0 0.0
2017-Nov-15 09:30N 59°07' E 009°37'0 0.0
2017-Nov-15 09:00N 59°07' E 009°37'0 0.0
2017-Nov-15 08:30N 59°07' E 009°37'0 0.0
2017-Nov-15 08:00N 59°07' E 009°37'0 0.0
2017-Nov-15 07:30N 59°07' E 009°37'0 0.0
2017-Nov-15 07:00N 59°07' E 009°37'0 0.0
2017-Nov-15 06:30N 59°07' E 009°37'0 0.0
2017-Nov-15 06:00N 59°07' E 009°37'0 0.0
2017-Nov-15 05:30N 59°07' E 009°37'0 0.0
2017-Nov-15 05:00N 59°07' E 009°37'0 0.0
2017-Nov-15 04:30N 59°07' E 009°37'0 0.0
2017-Nov-15 04:00N 59°07' E 009°37'0 0.0
2017-Nov-15 03:30N 59°07' E 009°37'0 0.0
2017-Nov-15 03:00N 59°07' E 009°37'0 0.0
2017-Nov-15 02:30N 59°07' E 009°37'0 0.0
2017-Nov-15 02:00N 59°07' E 009°37'0 0.0
2017-Nov-15 01:30N 59°07' E 009°37'0 0.0
2017-Nov-15 01:00N 59°07' E 009°37'0 0.0
2017-Nov-15 00:30N 59°07' E 009°37'0 0.0
2017-Nov-15 00:00N 59°07' E 009°37'0 0.0
2017-Nov-14 23:30N 59°07' E 009°37'0 0.0
2017-Nov-14 23:00N 59°07' E 009°37'0 0.0
2017-Nov-14 22:30N 59°07' E 009°37'0 0.0
2017-Nov-14 22:00N 59°07' E 009°37'0 0.0
2017-Nov-14 21:30N 59°07' E 009°37'0 0.0
2017-Nov-14 21:00N 59°07' E 009°37'0 0.0
2017-Nov-14 20:30N 59°07' E 009°37'0 0.0
2017-Nov-14 20:00N 59°07' E 009°37'0 0.0
2017-Nov-14 19:30N 59°07' E 009°37'0 0.0
2017-Nov-14 19:00N 59°07' E 009°37'0 0.0
2017-Nov-14 18:30N 59°07' E 009°37'0 0.0
2017-Nov-14 18:00N 59°07' E 009°37'0 0.0
2017-Nov-14 17:30N 59°07' E 009°37'0 0.0
2017-Nov-14 17:00N 59°07' E 009°37'0 0.0
2017-Nov-14 16:30N 59°07' E 009°37'0 0.0
2017-Nov-14 16:00N 59°07' E 009°37'0 0.0
2017-Nov-14 15:30N 59°07' E 009°37'0 0.0
2017-Nov-14 15:00N 59°07' E 009°37'0 0.0
2017-Nov-14 14:30N 59°07' E 009°37'0 0.0
2017-Nov-14 13:59N 59°07' E 009°37'0 0.0
2017-Nov-14 13:30N 59°07' E 009°37'0 0.0
2017-Nov-14 13:00N 59°07' E 009°37'0 0.0
2017-Nov-14 12:30N 59°07' E 009°37'0 0.0
2017-Nov-14 12:00N 59°07' E 009°37'0 0.0
2017-Nov-14 11:30N 59°07' E 009°37'0 0.0
2017-Nov-14 11:00N 59°07' E 009°37'0 0.0
2017-Nov-14 10:30N 59°07' E 009°37'0 0.0
2017-Nov-14 10:00N 59°07' E 009°37'0 0.0
2017-Nov-14 09:30N 59°07' E 009°37'0 0.0
2017-Nov-14 09:00N 59°07' E 009°37'0 0.0
2017-Nov-14 08:30N 59°07' E 009°37'0 0.0
2017-Nov-14 08:01N 59°07' E 009°37'0 0.0
2017-Nov-14 07:30N 59°07' E 009°37'0 0.0
2017-Nov-14 07:00N 59°07' E 009°37'0 0.0
2017-Nov-14 06:30N 59°07' E 009°37'0 0.0
2017-Nov-14 06:00N 59°07' E 009°37'0 0.0
2017-Nov-14 05:30N 59°07' E 009°37'0 0.0
2017-Nov-14 05:00N 59°07' E 009°37'0 0.0
2017-Nov-14 04:30N 59°07' E 009°37'0 0.0
2017-Nov-14 03:59N 59°07' E 009°37'0 0.0
2017-Nov-14 03:29N 59°07' E 009°37'0 0.0
2017-Nov-14 03:01N 59°07' E 009°37'0 0.0
2017-Nov-14 02:30N 59°07' E 009°37'0 0.0
2017-Nov-14 02:00N 59°07' E 009°37'0 0.0
2017-Nov-14 01:29N 59°07' E 009°37'0 0.0
2017-Nov-14 01:00N 59°07' E 009°37'0 0.0
2017-Nov-14 00:30N 59°07' E 009°37'0 0.0
2017-Nov-14 00:00N 59°07' E 009°37'0 0.0
2017-Nov-13 23:30N 59°07' E 009°37'0 0.0
2017-Nov-13 23:00N 59°07' E 009°37'0 0.0
2017-Nov-13 22:30N 59°07' E 009°37'0 0.0
2017-Nov-13 22:00N 59°07' E 009°37'1 0.0
2017-Nov-13 01:59N 59°07' E 009°37'0 0.0
2017-Nov-13 01:29N 59°07' E 009°37'0 0.0
2017-Nov-13 00:59N 59°07' E 009°37'0 0.1
2017-Nov-13 00:29N 59°07' E 009°37'0 0.1
2017-Nov-12 23:59N 59°07' E 009°37'0 0.0
2017-Nov-12 23:29N 59°07' E 009°37'0 0.0
2017-Nov-12 22:59N 59°07' E 009°37'0 0.1
2017-Nov-12 22:29N 59°07' E 009°37'3 6.2
2017-Nov-12 22:00N 59°04' E 009°39'4 8.4
2017-Nov-12 21:30N 59°01' E 009°45'510.8
2017-Nov-12 21:00N 58°56' E 009°48'713.1
2017-Nov-12 20:30N 58°50' E 009°53'613.1
2017-Nov-12 20:00N 58°44' E 009°58'713.2
2017-Nov-12 19:30N 58°38' E 010°04'713.6
2017-Nov-12 19:00N 58°32' E 010°09'713.4
2017-Nov-12 18:29N 58°25' E 010°15'1913.9
2017-Nov-12 17:06N 58°08' E 010°30'214.6
2017-Nov-12 16:59N 58°06' E 010°32'713.5
2017-Nov-12 16:30N 58°00' E 010°37'713.6
2017-Nov-12 16:00N 57°55' E 010°43'813.3
2017-Nov-12 15:26N 57°48' E 010°48'613.3
2017-Nov-12 15:00N 57°43' E 010°42'1 2.3
2017-Nov-12 14:22N 57°42' E 010°39'0 0.1
2017-Nov-12 13:58N 57°42' E 010°39'0 0.2
2017-Nov-12 13:28N 57°42' E 010°39'3 5.9
2017-Nov-12 13:00N 57°44' E 010°43'5 9.1
2017-Nov-12 12:30N 57°46' E 010°35'713.9
2017-Nov-12 12:00N 57°44' E 010°23'19311.7
2017-Nov-11 19:31N 55°21' E 006°28'111.1
2017-Nov-11 19:25N 55°20' E 006°27'12310.7
2017-Nov-11 07:59N 53°31' E 004°49'611.0
2017-Nov-11 07:29N 53°26' E 004°44'510.7
2017-Nov-11 06:59N 53°21' E 004°41'511.0
2017-Nov-11 06:29N 53°16' E 004°38'611.0
2017-Nov-11 05:59N 53°11' E 004°34'510.9
2017-Nov-11 05:30N 53°07' E 004°30'611.2
2017-Nov-11 05:00N 53°02' E 004°25'510.6
2017-Nov-11 04:30N 52°58' E 004°20'610.7
2017-Nov-11 03:59N 52°53' E 004°16'510.3
2017-Nov-11 03:29N 52°48' E 004°12'5 9.8
2017-Nov-11 03:00N 52°44' E 004°08'610.5
2017-Nov-11 02:27N 52°40' E 004°02'510.7
2017-Nov-11 02:00N 52°36' E 003°56'510.5
2017-Nov-11 01:30N 52°32' E 003°50'510.6
2017-Nov-11 01:00N 52°29' E 003°44'510.9
2017-Nov-11 00:30N 52°25' E 003°37'510.6
2017-Nov-11 00:00N 52°21' E 003°32'4511.6
2017-Nov-10 20:07N 51°49' E 002°41'213.1
2017-Nov-10 19:59N 51°47' E 002°39'613.2
2017-Nov-10 19:30N 51°42' E 002°33'713.3
2017-Nov-10 19:00N 51°37' E 002°26'713.3
2017-Nov-10 18:29N 51°32' E 002°19'713.2
2017-Nov-10 17:57N 51°27' E 002°11'612.7
2017-Nov-10 17:30N 51°21' E 002°07'612.7
2017-Nov-10 17:00N 51°15' E 002°05'713.3
2017-Nov-10 16:31N 51°11' E 001°57'713.7
2017-Nov-10 16:00N 51°07' E 001°48'4 7.2
2017-Nov-10 15:31N 51°03' E 001°50'510.5
2017-Nov-10 15:01N 51°03' E 001°59'611.9
2017-Nov-10 14:29N 51°03' E 002°08'3 6.1
2017-Nov-10 13:59N 51°00' E 002°11'0 0.0
2017-Nov-10 13:19N 51°00' E 002°11'0 0.0
2017-Nov-10 12:58N 51°00' E 002°11'0 0.0
2017-Nov-10 12:28N 51°00' E 002°11'0 0.0
2017-Nov-10 11:58N 51°00' E 002°11'0 0.0
2017-Nov-10 11:10N 51°00' E 002°11'0 0.0
2017-Nov-10 10:58N 51°00' E 002°11'0 0.0
2017-Nov-10 10:13N 51°00' E 002°11'0 0.0
2017-Nov-10 09:55N 51°00' E 002°11'0 0.0
2017-Nov-10 09:28N 51°00' E 002°11'0 0.0
2017-Nov-10 08:49N 51°00' E 002°11'0 0.0
2017-Nov-10 08:04N 51°00' E 002°11'0 0.0
2017-Nov-10 07:55N 51°00' E 002°11'0 0.0
2017-Nov-10 07:25N 51°00' E 002°11'0 0.0
2017-Nov-10 06:52N 51°00' E 002°11'0 0.0
2017-Nov-10 06:01N 51°00' E 002°11'0 0.0
2017-Nov-10 05:46N 51°00' E 002°11'0 0.0
2017-Nov-10 05:16N 51°00' E 002°11'0 0.0
2017-Nov-10 04:16N 51°00' E 002°11'0 0.0
2017-Nov-10 03:52N 51°00' E 002°11'0 0.0
2017-Nov-10 02:31N 51°00' E 002°11'0 0.0
2017-Nov-10 02:29N 51°00' E 002°11'0 0.0
2017-Nov-10 01:55N 51°00' E 002°11'0 0.0
2017-Nov-10 00:55N 51°00' E 002°11'0 0.0
2017-Nov-10 00:28N 51°00' E 002°11'0 0.0
2017-Nov-09 23:52N 51°00' E 002°11'0 0.0
2017-Nov-09 23:04N 51°00' E 002°11'0 0.0
2017-Nov-09 22:46N 51°00' E 002°11'0 0.0
2017-Nov-09 22:25N 51°00' E 002°11'0 0.0
2017-Nov-09 21:55N 51°00' E 002°11'0 0.0
2017-Nov-09 21:01N 51°00' E 002°11'0 0.0
2017-Nov-09 20:58N 51°00' E 002°11'0 0.0
2017-Nov-09 20:19N 51°00' E 002°11'0 0.0
2017-Nov-09 19:52N 51°00' E 002°11'0 0.0
2017-Nov-09 19:19N 51°00' E 002°11'0 0.0
2017-Nov-09 16:58N 51°00' E 002°11'0 0.0
2017-Nov-09 16:28N 51°00' E 002°11'0 0.0
2017-Nov-09 15:40N 51°00' E 002°11'0 0.0
2017-Nov-09 15:28N 51°00' E 002°11'0 0.0
2017-Nov-09 14:52N 51°00' E 002°11'0 0.0
2017-Nov-09 14:25N 51°00' E 002°11'0 0.0
2017-Nov-09 13:25N 51°00' E 002°11'0 0.0
2017-Nov-09 12:58N 51°00' E 002°11'0 0.0
2017-Nov-09 11:55N 51°00' E 002°11'0 0.0
2017-Nov-09 11:07N 51°00' E 002°11'0 0.0
2017-Nov-09 10:46N 51°00' E 002°11'0 0.0
2017-Nov-09 10:25N 51°00' E 002°11'0 0.0
2017-Nov-09 09:34N 51°00' E 002°11'0 0.0
2017-Nov-09 09:25N 51°00' E 002°11'0 0.0
2017-Nov-09 08:52N 51°00' E 002°11'  
Track history (hours):
 
Tides and Currents Weather Stations Pressure Air Temp Water Temp Dewpoint Dewpoint Depression Visibility Wind Speed Wind Dir Waves Ship Positions

Arklow Mill

Last reported at 2017-Nov-17 14:32 UTC. Time now 2017-Nov-18 14:19 UTC.
Position N 58°33' E 009°39'.

Length 137 m; draft 8.4 m.

Type: Ship. MMSI: 250002022.

Date/timePositionNaut miles runAvg speedWind from/ knotsBaromVisibWave heightAir tempDewpointWater temp
2017-Nov-17 14:32N 58°33' E 009°39'0 6.4
2017-Nov-17 14:30N 58°34' E 009°39'510.2
2017-Nov-17 14:00N 58°39' E 009°41'5 9.6
2017-Nov-17 13:30N 58°43' E 009°43'5 9.7
2017-Nov-17 13:00N 58°48' E 009°44'5 9.3
2017-Nov-17 12:30N 58°53' E 009°46'5 9.4
2017-Nov-17 12:00N 58°57' E 009°47'5 9.5
2017-Nov-17 11:30N 59°02' E 009°44'4 8.8
2017-Nov-17 11:00N 59°05' E 009°38'2 4.5
2017-Nov-17 10:30N 59°07' E 009°37'0 0.0
2017-Nov-17 09:58N 59°07' E 009°37'0 0.0
2017-Nov-17 09:30N 59°07' E 009°37'0 0.0
2017-Nov-17 09:00N 59°07' E 009°37'0 0.0
2017-Nov-17 08:30N 59°07' E 009°37'0 0.0
2017-Nov-17 08:00N 59°07' E 009°37'0 0.0
2017-Nov-17 07:30N 59°07' E 009°37'0 0.0
2017-Nov-17 07:00N 59°07' E 009°37'0 0.0
2017-Nov-17 06:30N 59°07' E 009°37'0 0.0
2017-Nov-17 06:00N 59°07' E 009°37'0 0.0
2017-Nov-17 05:30N 59°07' E 009°37'0 0.0
2017-Nov-17 05:00N 59°07' E 009°37'0 0.0
2017-Nov-17 04:30N 59°07' E 009°37'0 0.0
2017-Nov-17 04:00N 59°07' E 009°37'0 0.0
2017-Nov-17 03:30N 59°07' E 009°37'0 0.0
2017-Nov-17 03:00N 59°07' E 009°37'0 0.0
2017-Nov-17 02:30N 59°07' E 009°37'0 0.0
2017-Nov-17 02:00N 59°07' E 009°37'0 0.0
2017-Nov-17 01:30N 59°07' E 009°37'0 0.0
2017-Nov-17 01:00N 59°07' E 009°37'0 0.0
2017-Nov-17 00:30N 59°07' E 009°37'0 0.0
2017-Nov-17 00:00N 59°07' E 009°37'0 0.0
2017-Nov-16 23:30N 59°07' E 009°37'0 0.0
2017-Nov-16 23:00N 59°07' E 009°37'0 0.0
2017-Nov-16 22:30N 59°07' E 009°37'0 0.0
2017-Nov-16 21:59N 59°07' E 009°37'0 0.0
2017-Nov-16 21:30N 59°07' E 009°37'0 0.0
2017-Nov-16 21:00N 59°07' E 009°37'0 0.0
2017-Nov-16 20:30N 59°07' E 009°37'0 0.0
2017-Nov-16 20:00N 59°07' E 009°37'0 0.0
2017-Nov-16 19:30N 59°07' E 009°37'0 0.0
2017-Nov-16 19:00N 59°07' E 009°37'0 0.0
2017-Nov-16 18:31N 59°07' E 009°37'0 0.0
2017-Nov-16 18:00N 59°07' E 009°37'0 0.0
2017-Nov-16 17:30N 59°07' E 009°37'0 0.0
2017-Nov-16 17:00N 59°07' E 009°37'0 0.0
2017-Nov-16 16:31N 59°07' E 009°37'0 0.0
2017-Nov-16 16:00N 59°07' E 009°37'0 0.0
2017-Nov-16 15:30N 59°07' E 009°37'0 0.0
2017-Nov-16 15:00N 59°07' E 009°37'0 0.0
2017-Nov-16 14:30N 59°07' E 009°37'0 0.0
2017-Nov-16 14:00N 59°07' E 009°37'0 0.0
2017-Nov-16 13:30N 59°07' E 009°37'0 0.0
2017-Nov-16 13:00N 59°07' E 009°37'0 0.0
2017-Nov-16 12:30N 59°07' E 009°37'0 0.0
2017-Nov-16 12:00N 59°07' E 009°37'0 0.0
2017-Nov-16 11:30N 59°07' E 009°37'0 0.0
2017-Nov-16 11:00N 59°07' E 009°37'0 0.0
2017-Nov-16 10:30N 59°07' E 009°37'0 0.0
2017-Nov-16 10:00N 59°07' E 009°37'0 0.0
2017-Nov-16 09:31N 59°07' E 009°37'0 0.0
2017-Nov-16 09:00N 59°07' E 009°37'0 0.0
2017-Nov-16 08:30N 59°07' E 009°37'0 0.0
2017-Nov-16 08:00N 59°07' E 009°37'0 0.0
2017-Nov-16 07:30N 59°07' E 009°37'0 0.0
2017-Nov-16 07:00N 59°07' E 009°37'0 0.0
2017-Nov-16 06:30N 59°07' E 009°37'0 0.0
2017-Nov-16 06:00N 59°07' E 009°37'0 0.0
2017-Nov-16 05:29N 59°07' E 009°37'0 0.0
2017-Nov-16 05:01N 59°07' E 009°37'0 0.0
2017-Nov-16 04:31N 59°07' E 009°37'0 0.0
2017-Nov-16 04:00N 59°07' E 009°37'0 0.0
2017-Nov-16 03:30N 59°07' E 009°37'0 0.0
2017-Nov-16 03:00N 59°07' E 009°37'0 0.0
2017-Nov-16 02:30N 59°07' E 009°37'0 0.0
2017-Nov-16 02:00N 59°07' E 009°37'0 0.0
2017-Nov-16 01:30N 59°07' E 009°37'0 0.0
2017-Nov-16 01:00N 59°07' E 009°37'0 0.0
2017-Nov-16 00:30N 59°07' E 009°37'0 0.0
2017-Nov-16 00:00N 59°07' E 009°37'0 0.0
2017-Nov-15 23:30N 59°07' E 009°37'0 0.0
2017-Nov-15 23:00N 59°07' E 009°37'0 0.0
2017-Nov-15 22:30N 59°07' E 009°37'0 0.0
2017-Nov-15 22:00N 59°07' E 009°37'0 0.0
2017-Nov-15 21:30N 59°07' E 009°37'0 0.0
2017-Nov-15 21:00N 59°07' E 009°37'0 0.0
2017-Nov-15 20:30N 59°07' E 009°37'0 0.0
2017-Nov-15 20:00N 59°07' E 009°37'0 0.0
2017-Nov-15 19:30N 59°07' E 009°37'0 0.0
2017-Nov-15 19:00N 59°07' E 009°37'0 0.0
2017-Nov-15 18:30N 59°07' E 009°37'0 0.0
2017-Nov-15 18:00N 59°07' E 009°37'0 0.0
2017-Nov-15 17:30N 59°07' E 009°37'0 0.0
2017-Nov-15 17:00N 59°07' E 009°37'0 0.0
2017-Nov-15 16:30N 59°07' E 009°37'0 0.0
2017-Nov-15 16:00N 59°07' E 009°37'0 0.0
2017-Nov-15 15:30N 59°07' E 009°37'0 0.0
2017-Nov-15 15:00N 59°07' E 009°37'0 0.0
2017-Nov-15 14:30N 59°07' E 009°37'0 0.0
2017-Nov-15 14:00N 59°07' E 009°37'0 0.0
2017-Nov-15 13:30N 59°07' E 009°37'0 0.0
2017-Nov-15 13:00N 59°07' E 009°37'0 0.0
2017-Nov-15 12:30N 59°07' E 009°37'0 0.0
2017-Nov-15 12:00N 59°07' E 009°37'0 0.0
2017-Nov-15 11:30N 59°07' E 009°37'0 0.0
2017-Nov-15 11:00N 59°07' E 009°37'0 0.0
2017-Nov-15 10:30N 59°07' E 009°37'0 0.0
2017-Nov-15 09:59N 59°07' E 009°37'0 0.0
2017-Nov-15 09:30N 59°07' E 009°37'0 0.0
2017-Nov-15 09:00N 59°07' E 009°37'0 0.0
2017-Nov-15 08:30N 59°07' E 009°37'0 0.0
2017-Nov-15 08:00N 59°07' E 009°37'0 0.0
2017-Nov-15 07:30N 59°07' E 009°37'0 0.0
2017-Nov-15 07:00N 59°07' E 009°37'0 0.0
2017-Nov-15 06:30N 59°07' E 009°37'0 0.0
2017-Nov-15 06:00N 59°07' E 009°37'0 0.0
2017-Nov-15 05:30N 59°07' E 009°37'0 0.0
2017-Nov-15 05:00N 59°07' E 009°37'0 0.0
2017-Nov-15 04:30N 59°07' E 009°37'0 0.0
2017-Nov-15 04:00N 59°07' E 009°37'0 0.0
2017-Nov-15 03:30N 59°07' E 009°37'0 0.0
2017-Nov-15 03:00N 59°07' E 009°37'0 0.0
2017-Nov-15 02:30N 59°07' E 009°37'0 0.0
2017-Nov-15 02:00N 59°07' E 009°37'0 0.0
2017-Nov-15 01:30N 59°07' E 009°37'0 0.0
2017-Nov-15 01:00N 59°07' E 009°37'0 0.0
2017-Nov-15 00:30N 59°07' E 009°37'0 0.0
2017-Nov-15 00:00N 59°07' E 009°37'0 0.0
2017-Nov-14 23:30N 59°07' E 009°37'0 0.0
2017-Nov-14 23:00N 59°07' E 009°37'0 0.0
2017-Nov-14 22:30N 59°07' E 009°37'0 0.0
2017-Nov-14 22:00N 59°07' E 009°37'0 0.0
2017-Nov-14 21:30N 59°07' E 009°37'0 0.0
2017-Nov-14 21:00N 59°07' E 009°37'0 0.0
2017-Nov-14 20:30N 59°07' E 009°37'0 0.0
2017-Nov-14 20:00N 59°07' E 009°37'0 0.0
2017-Nov-14 19:30N 59°07' E 009°37'0 0.0
2017-Nov-14 19:00N 59°07' E 009°37'0 0.0
2017-Nov-14 18:30N 59°07' E 009°37'0 0.0
2017-Nov-14 18:00N 59°07' E 009°37'0 0.0
2017-Nov-14 17:30N 59°07' E 009°37'0 0.0
2017-Nov-14 17:00N 59°07' E 009°37'0 0.0
2017-Nov-14 16:30N 59°07' E 009°37'0 0.0
2017-Nov-14 16:00N 59°07' E 009°37'0 0.0
2017-Nov-14 15:30N 59°07' E 009°37'0 0.0
2017-Nov-14 15:00N 59°07' E 009°37'0 0.0
2017-Nov-14 14:30N 59°07' E 009°37'0 0.0
2017-Nov-14 13:59N 59°07' E 009°37'0 0.0
2017-Nov-14 13:30N 59°07' E 009°37'0 0.0
2017-Nov-14 13:00N 59°07' E 009°37'0 0.0
2017-Nov-14 12:30N 59°07' E 009°37'0 0.0
2017-Nov-14 12:00N 59°07' E 009°37'0 0.0
2017-Nov-14 11:30N 59°07' E 009°37'0 0.0
2017-Nov-14 11:00N 59°07' E 009°37'0 0.0
2017-Nov-14 10:30N 59°07' E 009°37'0 0.0
2017-Nov-14 10:00N 59°07' E 009°37'0 0.0
2017-Nov-14 09:30N 59°07' E 009°37'0 0.0
2017-Nov-14 09:00N 59°07' E 009°37'0 0.0
2017-Nov-14 08:30N 59°07' E 009°37'0 0.0
2017-Nov-14 08:01N 59°07' E 009°37'0 0.0
2017-Nov-14 07:30N 59°07' E 009°37'0 0.0
2017-Nov-14 07:00N 59°07' E 009°37'0 0.0
2017-Nov-14 06:30N 59°07' E 009°37'0 0.0
2017-Nov-14 06:00N 59°07' E 009°37'0 0.0
2017-Nov-14 05:30N 59°07' E 009°37'0 0.0
2017-Nov-14 05:00N 59°07' E 009°37'0 0.0
2017-Nov-14 04:30N 59°07' E 009°37'0 0.0
2017-Nov-14 03:59N 59°07' E 009°37'0 0.0
2017-Nov-14 03:29N 59°07' E 009°37'0 0.0
2017-Nov-14 03:01N 59°07' E 009°37'0 0.0
2017-Nov-14 02:30N 59°07' E 009°37'0 0.0
2017-Nov-14 02:00N 59°07' E 009°37'0 0.0
2017-Nov-14 01:29N 59°07' E 009°37'0 0.0
2017-Nov-14 01:00N 59°07' E 009°37'0 0.0
2017-Nov-14 00:30N 59°07' E 009°37'0 0.0
2017-Nov-14 00:00N 59°07' E 009°37'0 0.0
2017-Nov-13 23:30N 59°07' E 009°37'0 0.0
2017-Nov-13 23:00N 59°07' E 009°37'0 0.0
2017-Nov-13 22:30N 59°07' E 009°37'0 0.0
2017-Nov-13 22:00N 59°07' E 009°37'1 0.0
2017-Nov-13 01:59N 59°07' E 009°37'0 0.0
2017-Nov-13 01:29N 59°07' E 009°37'0 0.0
2017-Nov-13 00:59N 59°07' E 009°37'0 0.1
2017-Nov-13 00:29N 59°07' E 009°37'0 0.1
2017-Nov-12 23:59N 59°07' E 009°37'0 0.0
2017-Nov-12 23:29N 59°07' E 009°37'0 0.0
2017-Nov-12 22:59N 59°07' E 009°37'0 0.1
2017-Nov-12 22:29N 59°07' E 009°37'3 6.2
2017-Nov-12 22:00N 59°04' E 009°39'4 8.4
2017-Nov-12 21:30N 59°01' E 009°45'510.8
2017-Nov-12 21:00N 58°56' E 009°48'713.1
2017-Nov-12 20:30N 58°50' E 009°53'613.1
2017-Nov-12 20:00N 58°44' E 009°58'713.2
2017-Nov-12 19:30N 58°38' E 010°04'713.6
2017-Nov-12 19:00N 58°32' E 010°09'713.4
2017-Nov-12 18:29N 58°25' E 010°15'1913.9
2017-Nov-12 17:06N 58°08' E 010°30'214.6
2017-Nov-12 16:59N 58°06' E 010°32'713.5
2017-Nov-12 16:30N 58°00' E 010°37'713.6
2017-Nov-12 16:00N 57°55' E 010°43'813.3
2017-Nov-12 15:26N 57°48' E 010°48'613.3
2017-Nov-12 15:00N 57°43' E 010°42'1 2.3
2017-Nov-12 14:22N 57°42' E 010°39'0 0.1
2017-Nov-12 13:58N 57°42' E 010°39'0 0.2
2017-Nov-12 13:28N 57°42' E 010°39'3 5.9
2017-Nov-12 13:00N 57°44' E 010°43'5 9.1
2017-Nov-12 12:30N 57°46' E 010°35'713.9
2017-Nov-12 12:00N 57°44' E 010°23'19311.7
2017-Nov-11 19:31N 55°21' E 006°28'111.1
2017-Nov-11 19:25N 55°20' E 006°27'12310.7
2017-Nov-11 07:59N 53°31' E 004°49'611.0
2017-Nov-11 07:29N 53°26' E 004°44'510.7
2017-Nov-11 06:59N 53°21' E 004°41'511.0
2017-Nov-11 06:29N 53°16' E 004°38'611.0
2017-Nov-11 05:59N 53°11' E 004°34'510.9
2017-Nov-11 05:30N 53°07' E 004°30'611.2
2017-Nov-11 05:00N 53°02' E 004°25'510.6
2017-Nov-11 04:30N 52°58' E 004°20'610.7
2017-Nov-11 03:59N 52°53' E 004°16'510.3
2017-Nov-11 03:29N 52°48' E 004°12'5 9.8
2017-Nov-11 03:00N 52°44' E 004°08'610.5
2017-Nov-11 02:27N 52°40' E 004°02'510.7
2017-Nov-11 02:00N 52°36' E 003°56'510.5
2017-Nov-11 01:30N 52°32' E 003°50'510.6
2017-Nov-11 01:00N 52°29' E 003°44'510.9
2017-Nov-11 00:30N 52°25' E 003°37'510.6
2017-Nov-11 00:00N 52°21' E 003°32'4511.6
2017-Nov-10 20:07N 51°49' E 002°41'213.1
2017-Nov-10 19:59N 51°47' E 002°39'613.2
2017-Nov-10 19:30N 51°42' E 002°33'713.3
2017-Nov-10 19:00N 51°37' E 002°26'713.3
2017-Nov-10 18:29N 51°32' E 002°19'713.2
2017-Nov-10 17:57N 51°27' E 002°11'612.7
2017-Nov-10 17:30N 51°21' E 002°07'612.7
2017-Nov-10 17:00N 51°15' E 002°05'713.3
2017-Nov-10 16:31N 51°11' E 001°57'713.7
2017-Nov-10 16:00N 51°07' E 001°48'4 7.2
2017-Nov-10 15:31N 51°03' E 001°50'510.5
2017-Nov-10 15:01N 51°03' E 001°59'611.9
2017-Nov-10 14:29N 51°03' E 002°08'3 6.1
2017-Nov-10 13:59N 51°00' E 002°11'0 0.0
2017-Nov-10 13:19N 51°00' E 002°11'0 0.0
2017-Nov-10 12:58N 51°00' E 002°11'0 0.0
2017-Nov-10 12:28N 51°00' E 002°11'0 0.0
2017-Nov-10 11:58N 51°00' E 002°11'0 0.0
2017-Nov-10 11:10N 51°00' E 002°11'0 0.0
2017-Nov-10 10:58N 51°00' E 002°11'0 0.0
2017-Nov-10 10:13N 51°00' E 002°11'0 0.0
2017-Nov-10 09:55N 51°00' E 002°11'0 0.0
2017-Nov-10 09:28N 51°00' E 002°11'0 0.0
2017-Nov-10 08:49N 51°00' E 002°11'0 0.0
2017-Nov-10 08:04N 51°00' E 002°11'0 0.0
2017-Nov-10 07:55N 51°00' E 002°11'0 0.0
2017-Nov-10 07:25N 51°00' E 002°11'0 0.0
2017-Nov-10 06:52N 51°00' E 002°11'0 0.0
2017-Nov-10 06:01N 51°00' E 002°11'0 0.0
2017-Nov-10 05:46N 51°00' E 002°11'0 0.0
2017-Nov-10 05:16N 51°00' E 002°11'0 0.0
2017-Nov-10 04:16N 51°00' E 002°11'0 0.0
2017-Nov-10 03:52N 51°00' E 002°11'0 0.0
2017-Nov-10 02:31N 51°00' E 002°11'0 0.0
2017-Nov-10 02:29N 51°00' E 002°11'0 0.0
2017-Nov-10 01:55N 51°00' E 002°11'0 0.0
2017-Nov-10 00:55N 51°00' E 002°11'0 0.0
2017-Nov-10 00:28N 51°00' E 002°11'0 0.0
2017-Nov-09 23:52N 51°00' E 002°11'0 0.0
2017-Nov-09 23:04N 51°00' E 002°11'0 0.0
2017-Nov-09 22:46N 51°00' E 002°11'0 0.0
2017-Nov-09 22:25N 51°00' E 002°11'0 0.0
2017-Nov-09 21:55N 51°00' E 002°11'0 0.0
2017-Nov-09 21:01N 51°00' E 002°11'0 0.0
2017-Nov-09 20:58N 51°00' E 002°11'0 0.0
2017-Nov-09 20:19N 51°00' E 002°11'0 0.0
2017-Nov-09 19:52N 51°00' E 002°11'0 0.0
2017-Nov-09 19:19N 51°00' E 002°11'0 0.0
2017-Nov-09 16:58N 51°00' E 002°11'0 0.0
2017-Nov-09 16:28N 51°00' E 002°11'0 0.0
2017-Nov-09 15:40N 51°00' E 002°11'0 0.0
2017-Nov-09 15:28N 51°00' E 002°11'0 0.0
2017-Nov-09 14:52N 51°00' E 002°11'0 0.0
2017-Nov-09 14:25N 51°00' E 002°11'0 0.0
2017-Nov-09 13:25N 51°00' E 002°11'0 0.0
2017-Nov-09 12:58N 51°00' E 002°11'0 0.0
2017-Nov-09 11:55N 51°00' E 002°11'0 0.0
2017-Nov-09 11:07N 51°00' E 002°11'0 0.0
2017-Nov-09 10:46N 51°00' E 002°11'0 0.0
2017-Nov-09 10:25N 51°00' E 002°11'0 0.0
2017-Nov-09 09:34N 51°00' E 002°11'0 0.0
2017-Nov-09 09:25N 51°00' E 002°11'0 0.0
2017-Nov-09 08:52N 51°00' E 002°11'  

Dump ship's entire track history